Flight Track Log - Related Links

Times and Time Zones

All times are in EDT time to prevent confusion due to time zone crossing. See the EJA829P flight status page for this flight to view local times or setup timezone preferences in your user account.

Time Position Orientation Groundspeed Altitude Reporting Facility
EDT Latitude Longitude Course Direction KTS MPH feet Rate Location/Type
Wed 01:01:53 PM 43.9714 -76.0436 178° South 145 167 2,400  Level Boston Center
Wed 01:03:00 PM 43.9194 -76.0406 178° South 179 206 7,100 3,248 Climbing Boston Center
Wed 01:04:06 PM 43.8586 -76.0483 185° South 203 234 9,600 2,478 Climbing Boston Center
Wed 01:05:18 PM 43.7600 -76.0711 189° South 265 305 12,800 2,748 Climbing Boston Center
Wed 01:06:17 PM 43.6739 -76.0919 190° South 298 343 15,600 2,975 Climbing Boston Center
Wed 01:07:17 PM 43.5856 -76.1122 189° South 320 368 18,700 3,050 Climbing Boston Center
Wed 01:08:17 PM 43.5058 -76.1303 189° South 312 359 21,700 2,600 Climbing Boston Center
Wed 01:09:17 PM 43.4197 -76.1508 190° South 312 359 23,900 1,150 Climbing Boston Center
Wed 01:10:17 PM 43.3272 -76.1708 189° South 320 368 24,000 50 Climbing Boston Center
Wed 01:11:18 PM 43.2350 -76.1908 189° South 338 389 24,000  Level Boston Center
Wed 01:12:17 PM 43.1428 -76.2053 187° South 338 389 24,000  Level Boston Center
Wed 01:13:29 PM 43.0511 -76.1994 177° South 333 383 24,000  Level Boston Center
Wed 01:14:29 PM 42.9386 -76.1956 179° South 328 377 24,000 -639 Level Boston Center
Wed 01:16:18 PM 42.7786 -76.1792 176° South 339 390 22,200 -719 Descending New York Center
Wed 01:17:16 PM 42.6850 -76.1742 178° South 344 396 22,000 -102 Descending New York Center
Wed 01:18:16 PM 42.5897 -76.1661 176° South 344 396 22,000  Level New York Center
Wed 01:19:16 PM 42.4986 -76.1586 177° South 344 396 22,000  Level New York Center
Wed 01:20:17 PM 42.4050 -76.1539 178° South 344 396 22,000  Level New York Center
Wed 01:21:17 PM 42.3303 -76.1506 178° South 344 396 22,000  Level New York Center
Wed 01:22:15 PM 42.2142 -76.1436 177° South 344 396 22,000  Level New York Center
Wed 01:23:16 PM 42.1214 -76.1222 170° South 344 396 22,000  Level New York Center
Wed 01:24:17 PM 42.0319 -76.0731 158° South 349 402 22,000  Level New York Center
Wed 01:25:15 PM 41.9425 -76.0269 159° South 349 402 22,000  Level New York Center
Wed 01:26:15 PM 41.8506 -75.9833 161° South 354 407 22,000  Level New York Center
Wed 01:27:15 PM 41.7611 -75.9347 158° South 354 407 22,000  Level New York Center
Wed 01:28:16 PM 41.6714 -75.8917 160° South 354 407 22,000  Level New York Center
Wed 01:29:17 PM 41.5817 -75.8461 159° South 354 407 22,000  Level New York Center
Wed 01:30:18 PM 41.4878 -75.8028 161° South 354 407 22,000  Level New York Center
Wed 01:31:15 PM 41.3981 -75.7547 158° South 354 407 22,000  Level New York Center
Wed 01:32:15 PM 41.3083 -75.7122 160° South 354 407 22,000  Level New York Center
Wed 01:33:16 PM 41.2156 -75.6889 169° South 354 407 22,000  Level New York Center
Wed 01:34:17 PM 41.1239 -75.6903 181° South 348 400 22,000  Level New York Center
Wed 01:35:18 PM 41.0281 -75.6889 179° South 348 400 22,000  Level New York Center
Wed 01:36:15 PM 40.9531 -75.6864 179° South 348 400 22,000  Level New York Center
Wed 01:37:16 PM 40.8489 -75.6869 180° South 348 400 22,000  Level New York Center
Wed 01:38:17 PM 40.7489 -75.6853 179° South 348 400 22,000  Level New York Center
Wed 01:39:17 PM 40.6572 -75.6842 179° South 348 400 22,000 -700 Level New York Center
Wed 01:40:17 PM 40.5556 -75.6769 177° South 354 407 20,600 -1,800 Descending New York Center
Wed 01:41:17 PM 40.4467 -75.6392 165° South 370 426 18,400 -2,050 Descending New York Center
Wed 01:42:17 PM 40.3500 -75.6050 165° South 370 426 16,500 -1,392 Descending New York Center
Wed 01:44:31 PM 40.1364 -75.5914 177° South 336 387 13,900 -804 Descending Washington Center
Wed 01:45:31 PM 40.0469 -75.6239 196° South 336 387 13,900  Level Washington Center
Wed 01:46:33 PM 39.9572 -75.6592 197° South 342 394 13,900 50 Level Washington Center
Wed 01:47:31 PM 39.8594 -75.6592 180° South 347 399 14,000 50 Climbing Washington Center
Wed 01:48:32 PM 39.7636 -75.6294 167° South 347 399 14,000  Level Washington Center
Wed 01:49:32 PM 39.6656 -75.6050 169° South 359 413 14,000  Level Washington Center
Wed 01:50:33 PM 39.5719 -75.5861 171° South 359 413 14,000  Level Washington Center
Wed 01:51:33 PM 39.4803 -75.5378 158° South 349 402 14,000 -51 Level Washington Center
Wed 01:52:31 PM 39.3906 -75.4733 151° Southeast 359 413 13,900 -508 Descending Washington Center
Wed 01:53:31 PM 39.2967 -75.4681 178° South 339 390 13,000 -1,140 Descending Washington Center
Wed 01:54:32 PM 39.2050 -75.4764 184° South 333 383 11,600 -1,537 Descending Washington Center
Wed 01:55:32 PM 39.1153 -75.4792 181° South 327 376 9,900 -1,835 Descending Washington Center
Wed 01:56:33 PM 39.0425 -75.4794 180° South 297 342 7,900 -1,339 Descending Washington Center
Wed 01:57:33 PM 38.9675 -75.4822 182° South 280 322 7,200 -974 Descending Washington Center
Wed 01:58:30 PM 38.8944 -75.4875 183° South 270 311 6,000 -1,169 Descending Washington Center
Wed 01:59:31 PM 38.8236 -75.4878 180° South 270 311 4,900 -1,033 Descending Washington Center
Wed 02:00:32 PM 38.7528 -75.4800 175° South 264 304 3,900 -689 Descending Washington Center
Wed 02:01:33 PM 38.7006 -75.4747 175° South 264 304 3,500 -600 Descending Washington Center
Wed 02:02:42 PM 38.5922 -75.4669 177° South 257 296 2,600 -615 Descending Washington Center
Wed 02:03:30 PM 38.5339 -75.4564 172° South 264 304 2,300 1,321 Descending Washington Center
Wed 02:04:31 PM 38.4608 -75.4511 177° South 264 304 5,000 -403 Climbing Washington Center
Wed 02:05:44 PM 38.3961 -75.4567 184° South 195 224 1,400 -2,959 Descending Washington Center

Login

Don't have an account? Register now (free) for customized features, flight alerts, and more!